createdAt,value
2016-03-30T00:00:50.670Z,998.68
2016-03-30T00:01:50.642Z,998.65
2016-03-30T00:02:50.612Z,998.56
2016-03-30T00:03:50.584Z,998.56
2016-03-30T00:04:50.556Z,998.49
2016-03-30T00:05:50.527Z,998.57
2016-03-30T00:06:50.514Z,998.52
2016-03-30T00:07:50.486Z,998.55
2016-03-30T00:08:50.457Z,998.62
2016-03-30T00:09:50.428Z,998.61
2016-03-30T00:10:50.400Z,998.67
2016-03-30T00:11:50.372Z,998.61
2016-03-30T00:12:50.343Z,998.59
2016-03-30T00:13:50.314Z,998.59
2016-03-30T00:14:50.285Z,998.53
2016-03-30T00:15:50.273Z,998.57
2016-03-30T00:16:50.244Z,998.59
2016-03-30T00:17:50.216Z,998.63
2016-03-30T00:18:50.203Z,998.62
2016-03-30T00:19:50.175Z,998.51
2016-03-30T00:20:50.146Z,998.42
2016-03-30T00:21:50.101Z,998.33
2016-03-30T00:22:50.089Z,998.32
2016-03-30T00:23:50.060Z,998.32
2016-03-30T00:24:50.032Z,998.3
2016-03-30T00:25:50.002Z,998.28
2016-03-30T00:26:49.990Z,998.23
2016-03-30T00:27:49.962Z,998.2
2016-03-30T00:28:49.932Z,998.15
2016-03-30T00:29:49.904Z,998.15
2016-03-30T00:30:49.876Z,998.12
2016-03-30T00:31:49.847Z,998.13
2016-03-30T00:32:49.818Z,998.08
2016-03-30T00:33:49.805Z,998.1
2016-03-30T00:34:49.776Z,998.08
2016-03-30T00:35:49.748Z,998.06
2016-03-30T00:36:49.719Z,998.02
2016-03-30T00:37:49.692Z,998.04
2016-03-30T00:38:49.662Z,998.04
2016-03-30T00:39:49.634Z,998.06
2016-03-30T00:40:49.622Z,998.06
2016-03-30T00:41:49.592Z,998.09
2016-03-30T00:42:49.564Z,998.08
2016-03-30T00:43:49.535Z,998.07
2016-03-30T00:44:49.586Z,998.07
2016-03-30T00:45:49.478Z,998.12
2016-03-30T00:46:49.466Z,998.21
2016-03-30T00:47:49.436Z,998.22
2016-03-30T00:48:49.408Z,998.22
2016-03-30T00:49:49.380Z,998.18
2016-03-30T00:50:49.352Z,998.24
2016-03-30T00:51:49.323Z,998.2
2016-03-30T00:52:49.310Z,998.16
2016-03-30T00:53:49.281Z,998.14
2016-03-30T00:54:49.252Z,998.2
2016-03-30T00:55:49.224Z,998.11
2016-03-30T00:56:49.211Z,998.12
2016-03-30T00:57:49.182Z,998.16
2016-03-30T00:58:49.154Z,998.14
2016-03-30T00:59:49.141Z,998.09
2016-03-30T01:00:49.096Z,998.12
2016-03-30T01:01:49.069Z,998.05
2016-03-30T01:02:49.040Z,998.07
2016-03-30T01:03:49.012Z,998.02
2016-03-30T01:04:48.998Z,997.96
2016-03-30T01:05:48.970Z,997.92
2016-03-30T01:06:48.939Z,997.93
2016-03-30T01:07:48.899Z,997.93
2016-03-30T01:08:48.860Z,997.95
2016-03-30T01:09:48.821Z,997.92
2016-03-30T01:10:48.797Z,997.87
2016-03-30T01:11:48.760Z,997.85
2016-03-30T01:12:48.727Z,997.78
2016-03-30T01:13:49.928Z,997.74
2016-03-30T01:14:49.224Z,997.79
2016-03-30T01:15:50.081Z,997.75
2016-03-30T01:16:48.611Z,997.75
2016-03-30T01:17:48.581Z,997.76
2016-03-30T01:18:48.551Z,997.75
2016-03-30T01:19:48.522Z,997.79
2016-03-30T01:20:48.507Z,997.84
2016-03-30T01:21:48.477Z,997.89
2016-03-30T01:22:48.448Z,997.9
2016-03-30T01:23:48.419Z,997.86
2016-03-30T01:24:48.390Z,997.81
2016-03-30T01:25:48.361Z,997.8
2016-03-30T01:26:48.332Z,997.72
2016-03-30T01:27:48.304Z,997.73
2016-03-30T01:28:48.291Z,997.65
2016-03-30T01:29:48.278Z,997.67
2016-03-30T01:30:48.234Z,997.62
2016-03-30T01:31:48.205Z,997.67
2016-03-30T01:32:48.177Z,997.63
2016-03-30T01:33:48.164Z,997.65
2016-03-30T01:34:48.136Z,997.63
2016-03-30T01:35:48.106Z,997.67
2016-03-30T01:36:48.077Z,997.65
2016-03-30T01:37:48.049Z,997.63
2016-03-30T01:38:48.021Z,997.56
2016-03-30T01:39:47.992Z,997.59
2016-03-30T01:40:47.980Z,997.56
2016-03-30T01:41:47.951Z,997.53
2016-03-30T01:42:47.922Z,997.52
2016-03-30T01:43:47.893Z,997.47
2016-03-30T01:44:47.913Z,997.53
2016-03-30T01:45:47.852Z,997.57
2016-03-30T01:46:47.824Z,997.51
2016-03-30T01:47:47.795Z,997.51
2016-03-30T01:48:47.767Z,997.52
2016-03-30T01:49:47.738Z,997.56
2016-03-30T01:50:47.710Z,997.56
2016-03-30T01:51:47.697Z,997.56
2016-03-30T01:52:47.668Z,997.57
2016-03-30T01:53:47.639Z,997.51
2016-03-30T01:54:47.611Z,997.51
2016-03-30T01:55:47.582Z,997.47
2016-03-30T01:56:47.570Z,997.48
2016-03-30T01:57:47.541Z,997.4
2016-03-30T01:58:47.512Z,997.45
2016-03-30T01:59:47.483Z,997.41
2016-03-30T02:00:47.470Z,997.45
2016-03-30T02:01:47.426Z,997.44
2016-03-30T02:02:47.414Z,997.44
2016-03-30T02:03:47.385Z,997.41
2016-03-30T02:04:47.356Z,997.47
2016-03-30T02:05:47.328Z,997.48
2016-03-30T02:06:47.314Z,997.45
2016-03-30T02:07:47.286Z,997.44
2016-03-30T02:08:47.258Z,997.48
2016-03-30T02:09:47.230Z,997.42
2016-03-30T02:10:47.200Z,997.49
2016-03-30T02:11:47.172Z,997.52
2016-03-30T02:12:47.159Z,997.54
2016-03-30T02:13:47.131Z,997.51
2016-03-30T02:14:47.102Z,997.61
2016-03-30T02:15:47.073Z,997.64
2016-03-30T02:16:47.046Z,997.6
2016-03-30T02:17:47.032Z,997.59
2016-03-30T02:18:47.004Z,997.59
2016-03-30T02:19:46.975Z,997.56
2016-03-30T02:20:46.962Z,997.52
2016-03-30T02:21:46.918Z,997.58
2016-03-30T02:22:46.905Z,997.52
2016-03-30T02:23:46.876Z,997.48
2016-03-30T02:24:46.848Z,997.54
2016-03-30T02:25:46.820Z,997.54
2016-03-30T02:26:46.791Z,997.54
2016-03-30T02:27:46.778Z,997.52
2016-03-30T02:28:46.749Z,997.48
2016-03-30T02:29:46.721Z,997.56
2016-03-30T02:30:46.693Z,997.63
2016-03-30T02:31:46.679Z,997.62
2016-03-30T02:32:46.651Z,997.59
2016-03-30T02:33:46.622Z,997.6
2016-03-30T02:34:46.609Z,997.61
2016-03-30T02:35:46.581Z,997.54
2016-03-30T02:36:46.553Z,997.5
2016-03-30T02:37:46.523Z,997.52
2016-03-30T02:38:46.495Z,997.51
2016-03-30T02:39:46.466Z,997.5
2016-03-30T02:40:46.453Z,997.45
2016-03-30T02:41:46.425Z,997.49
2016-03-30T02:42:46.397Z,997.53
2016-03-30T02:43:46.368Z,997.51
2016-03-30T02:44:46.339Z,997.55
2016-03-30T02:45:46.327Z,997.56
2016-03-30T02:46:46.297Z,997.52
2016-03-30T02:47:46.269Z,997.48
2016-03-30T02:48:46.240Z,997.44
2016-03-30T02:49:46.228Z,997.45
2016-03-30T02:50:46.199Z,997.48
2016-03-30T02:51:46.171Z,997.5
2016-03-30T02:52:46.143Z,997.51
2016-03-30T02:53:46.129Z,997.54
2016-03-30T02:54:46.101Z,997.52
2016-03-30T02:55:46.072Z,997.56
2016-03-30T02:56:46.043Z,997.53
2016-03-30T02:57:46.016Z,997.52
2016-03-30T02:58:46.002Z,997.5
2016-03-30T02:59:45.971Z,997.51
2016-03-30T03:00:45.942Z,997.55
2016-03-30T03:01:45.914Z,997.53
2016-03-30T03:02:45.901Z,997.53
2016-03-30T03:03:45.872Z,997.51
2016-03-30T03:04:45.843Z,997.54
2016-03-30T03:05:45.815Z,997.59
2016-03-30T03:06:45.787Z,997.63
2016-03-30T03:07:45.773Z,997.56
2016-03-30T03:08:45.745Z,997.48
2016-03-30T03:09:45.717Z,997.45
2016-03-30T03:10:45.688Z,997.48
2016-03-30T03:11:45.675Z,997.45
2016-03-30T03:12:45.647Z,997.5
2016-03-30T03:13:45.617Z,997.43
2016-03-30T03:14:45.589Z,997.39
2016-03-30T03:15:45.577Z,997.47
2016-03-30T03:16:45.548Z,997.5
2016-03-30T03:17:45.520Z,997.58
2016-03-30T03:18:45.492Z,997.54
2016-03-30T03:19:45.462Z,997.45
2016-03-30T03:20:45.450Z,997.46
2016-03-30T03:21:45.422Z,997.48
2016-03-30T03:22:45.392Z,997.44
2016-03-30T03:23:45.364Z,997.47
2016-03-30T03:24:45.352Z,997.55
2016-03-30T03:25:45.322Z,997.53
2016-03-30T03:26:45.294Z,997.56
2016-03-30T03:27:45.266Z,997.59
2016-03-30T03:28:45.237Z,997.58
2016-03-30T03:29:45.224Z,997.68
2016-03-30T03:30:45.196Z,997.73
2016-03-30T03:31:45.166Z,997.69
2016-03-30T03:32:45.137Z,997.69
2016-03-30T03:33:45.125Z,997.65
2016-03-30T03:34:45.096Z,997.67
2016-03-30T03:35:45.068Z,997.65
2016-03-30T03:36:45.054Z,997.62
2016-03-30T03:37:45.012Z,997.74
2016-03-30T03:38:44.998Z,997.62
2016-03-30T03:39:44.970Z,997.61
2016-03-30T03:40:44.941Z,997.76
2016-03-30T03:41:44.912Z,997.61
2016-03-30T03:42:44.900Z,997.63
2016-03-30T03:43:44.870Z,997.58
2016-03-30T03:44:44.842Z,997.53
2016-03-30T03:45:44.814Z,997.74
2016-03-30T03:46:44.800Z,997.76
2016-03-30T03:47:44.773Z,997.73
2016-03-30T03:48:44.744Z,997.76
2016-03-30T03:49:44.715Z,997.7
2016-03-30T03:50:44.687Z,997.63
2016-03-30T03:51:44.674Z,997.58
2016-03-30T03:52:44.645Z,997.56
2016-03-30T03:53:44.616Z,997.61
2016-03-30T03:54:44.588Z,997.64
2016-03-30T03:55:44.560Z,997.63
2016-03-30T03:56:44.530Z,997.61
2016-03-30T03:57:44.518Z,997.61
2016-03-30T03:58:44.488Z,997.63
2016-03-30T03:59:44.460Z,997.59
2016-03-30T04:00:44.432Z,997.65
2016-03-30T04:01:44.404Z,997.59
2016-03-30T04:02:44.390Z,997.56
2016-03-30T04:03:44.362Z,997.6
2016-03-30T04:04:44.334Z,997.66
2016-03-30T04:05:44.320Z,997.65
2016-03-30T04:06:44.276Z,997.67
2016-03-30T04:07:44.263Z,997.65
2016-03-30T04:08:44.235Z,997.71
2016-03-30T04:09:44.206Z,997.77
2016-03-30T04:10:44.178Z,997.75
2016-03-30T04:11:44.149Z,997.71
2016-03-30T04:12:44.136Z,997.72
2016-03-30T04:13:44.108Z,997.72
2016-03-30T04:14:44.078Z,997.76
2016-03-30T04:15:44.050Z,997.76
2016-03-30T04:16:44.037Z,997.77
2016-03-30T04:17:43.993Z,997.74
2016-03-30T04:18:43.965Z,997.7
2016-03-30T04:19:43.952Z,997.72
2016-03-30T04:20:43.923Z,997.77
2016-03-30T04:21:43.895Z,997.77
2016-03-30T04:22:43.867Z,997.82
2016-03-30T04:23:43.853Z,997.83
2016-03-30T04:24:43.825Z,997.87
2016-03-30T04:25:43.796Z,997.88
2016-03-30T04:26:43.768Z,997.87
2016-03-30T04:27:43.739Z,997.86
2016-03-30T04:28:43.711Z,997.88
2016-03-30T04:29:43.683Z,997.85
2016-03-30T04:30:43.669Z,997.81
2016-03-30T04:31:43.641Z,997.86
2016-03-30T04:32:43.613Z,997.87
2016-03-30T04:33:43.583Z,997.84
2016-03-30T04:34:43.555Z,997.87
2016-03-30T04:35:43.542Z,997.98
2016-03-30T04:36:43.513Z,997.99
2016-03-30T04:37:43.485Z,997.99
2016-03-30T04:38:43.456Z,998.02
2016-03-30T04:39:43.428Z,997.97
2016-03-30T04:40:43.414Z,997.94
2016-03-30T04:41:43.386Z,997.97
2016-03-30T04:42:43.357Z,998.01
2016-03-30T04:43:43.328Z,998.05
2016-03-30T04:44:43.301Z,998.1
2016-03-30T04:45:43.287Z,998.01
2016-03-30T04:46:43.243Z,998.01
2016-03-30T04:47:43.215Z,998.05
2016-03-30T04:48:43.203Z,998.09
2016-03-30T04:49:43.173Z,998.05
2016-03-30T04:50:43.145Z,998.07
2016-03-30T04:51:43.116Z,998.11
2016-03-30T04:52:43.088Z,998.12
2016-03-30T04:53:43.075Z,998.16
2016-03-30T04:54:43.046Z,998.15
2016-03-30T04:55:43.017Z,998.21
2016-03-30T04:56:42.988Z,998.2
2016-03-30T04:57:42.960Z,998.15
2016-03-30T04:58:42.932Z,998.14
2016-03-30T04:59:42.918Z,998.13
2016-03-30T05:00:42.891Z,998.18
2016-03-30T05:01:42.862Z,998.21
2016-03-30T05:02:42.833Z,998.19
2016-03-30T05:03:42.805Z,998.19
2016-03-30T05:04:42.791Z,998.19
2016-03-30T05:05:42.763Z,998.14
2016-03-30T05:06:42.734Z,998.14
2016-03-30T05:07:42.706Z,998.15
2016-03-30T05:08:42.677Z,998.16
2016-03-30T05:09:42.665Z,998.15
2016-03-30T05:10:42.637Z,998.18
2016-03-30T05:11:42.607Z,998.27
2016-03-30T05:12:42.579Z,998.23
2016-03-30T05:13:42.551Z,998.26
2016-03-30T05:14:42.538Z,998.24
2016-03-30T05:15:42.509Z,998.24
2016-03-30T05:16:42.481Z,998.31
2016-03-30T05:17:42.451Z,998.32
2016-03-30T05:18:42.423Z,998.34
2016-03-30T05:19:42.394Z,998.37
2016-03-30T05:20:42.366Z,998.37
2016-03-30T05:21:42.353Z,998.35
2016-03-30T05:22:42.324Z,998.33
2016-03-30T05:23:42.296Z,998.4
2016-03-30T05:24:42.267Z,998.4
2016-03-30T05:25:42.239Z,998.47
2016-03-30T05:26:42.211Z,998.44
2016-03-30T05:27:42.197Z,998.42
2016-03-30T05:28:42.169Z,998.45
2016-03-30T05:29:42.141Z,998.48
2016-03-30T05:30:42.111Z,998.45
2016-03-30T05:31:42.083Z,998.51
2016-03-30T05:32:42.070Z,998.47
2016-03-30T05:33:42.041Z,998.48
2016-03-30T05:34:42.013Z,998.49
2016-03-30T05:35:41.984Z,998.45
2016-03-30T05:36:41.956Z,998.5
2016-03-30T05:37:41.926Z,998.54
2016-03-30T05:38:41.898Z,998.54
2016-03-30T05:39:41.885Z,998.55
2016-03-30T05:40:41.857Z,998.56
2016-03-30T05:41:41.829Z,998.57
2016-03-30T05:42:41.801Z,998.59
2016-03-30T05:43:41.787Z,998.58
2016-03-30T05:44:41.759Z,998.61
2016-03-30T05:45:41.731Z,998.66
2016-03-30T05:46:41.701Z,998.65
2016-03-30T05:47:41.673Z,998.67
2016-03-30T05:48:41.644Z,998.67
2016-03-30T05:49:41.616Z,998.65
2016-03-30T05:50:41.603Z,998.65
2016-03-30T05:51:41.574Z,998.69
2016-03-30T05:52:41.546Z,998.74
2016-03-30T05:53:41.517Z,998.81
2016-03-30T05:54:41.489Z,998.79
2016-03-30T05:55:41.461Z,998.74
2016-03-30T05:56:41.447Z,998.78
2016-03-30T05:57:41.419Z,998.78
2016-03-30T05:58:41.390Z,998.84
2016-03-30T05:59:41.361Z,998.82
2016-03-30T06:00:41.349Z,998.85
2016-03-30T06:01:41.320Z,998.88
2016-03-30T06:02:41.291Z,998.9
2016-03-30T06:03:41.263Z,998.93
2016-03-30T06:04:41.234Z,998.95
2016-03-30T06:05:41.205Z,998.96
2016-03-30T06:06:41.193Z,999.01
2016-03-30T06:07:41.165Z,999.01
2016-03-30T06:08:41.136Z,999
2016-03-30T06:09:41.107Z,999.04
2016-03-30T06:10:41.079Z,999.06
2016-03-30T06:11:41.051Z,999.08
2016-03-30T06:12:41.037Z,999.11
2016-03-30T06:13:41.009Z,999.1
2016-03-30T06:14:40.979Z,999.09
2016-03-30T06:15:40.951Z,999.07
2016-03-30T06:16:40.923Z,999.07
2016-03-30T06:17:40.909Z,999.08
2016-03-30T06:18:40.881Z,999.12
2016-03-30T06:19:40.852Z,999.13
2016-03-30T06:20:40.824Z,999.14
2016-03-30T06:21:40.795Z,999.16
2016-03-30T06:22:40.782Z,999.18
2016-03-30T06:23:40.753Z,999.28
2016-03-30T06:24:40.725Z,999.28
2016-03-30T06:25:40.697Z,999.33
2016-03-30T06:26:40.669Z,999.3
2016-03-30T06:27:40.656Z,999.28
2016-03-30T06:28:40.627Z,999.37
2016-03-30T06:29:40.599Z,999.34
2016-03-30T06:30:40.569Z,999.34
2016-03-30T06:31:40.557Z,999.3
2016-03-30T06:32:40.528Z,999.36
2016-03-30T06:33:40.499Z,999.28
2016-03-30T06:34:40.472Z,999.33
2016-03-30T06:35:40.443Z,999.36
2016-03-30T06:36:40.430Z,999.4
2016-03-30T06:37:40.402Z,999.45
2016-03-30T06:38:40.373Z,999.51
2016-03-30T06:39:40.344Z,999.51
2016-03-30T06:40:40.331Z,999.49
2016-03-30T06:41:40.302Z,999.52
2016-03-30T06:42:40.274Z,999.53
2016-03-30T06:43:40.261Z,999.54
2016-03-30T06:44:40.217Z,999.57
2016-03-30T06:45:40.203Z,999.6
2016-03-30T06:46:40.176Z,999.55
2016-03-30T06:47:40.147Z,999.57
2016-03-30T06:48:40.118Z,999.6
2016-03-30T06:49:40.106Z,999.66
2016-03-30T06:50:40.076Z,999.68
2016-03-30T06:51:40.048Z,999.76
2016-03-30T06:52:40.035Z,999.71
2016-03-30T06:53:40.006Z,999.69
2016-03-30T06:54:40.009Z,999.7
2016-03-30T06:55:39.949Z,999.74
2016-03-30T06:56:39.921Z,999.77
2016-03-30T06:57:39.908Z,999.83
2016-03-30T06:58:39.879Z,999.79
2016-03-30T06:59:39.851Z,999.81
2016-03-30T07:00:39.822Z,999.79
2016-03-30T07:01:39.810Z,999.73
2016-03-30T07:02:39.781Z,999.7
2016-03-30T07:03:39.752Z,999.77
2016-03-30T07:04:39.739Z,999.77
2016-03-30T07:05:39.711Z,999.81
2016-03-30T07:06:39.682Z,999.82
2016-03-30T07:07:39.669Z,999.83
2016-03-30T07:08:39.625Z,999.85
2016-03-30T07:09:39.613Z,999.89
2016-03-30T07:10:39.585Z,999.88
2016-03-30T07:11:39.555Z,999.92
2016-03-30T07:12:39.543Z,999.91
2016-03-30T07:13:39.514Z,1000
2016-03-30T07:14:39.486Z,1000.01
2016-03-30T07:15:39.474Z,999.98
2016-03-30T07:16:39.444Z,999.99
2016-03-30T07:17:39.416Z,999.99
2016-03-30T07:18:39.388Z,1000
2016-03-30T07:19:39.374Z,1000.02
2016-03-30T07:20:39.346Z,1000.08
2016-03-30T07:21:39.317Z,1000.11
2016-03-30T07:22:39.288Z,1000.21
2016-03-30T07:23:39.276Z,1000.15
2016-03-30T07:24:39.247Z,1000.18
2016-03-30T07:25:39.218Z,1000.15
2016-03-30T07:26:39.206Z,1000.15
2016-03-30T07:27:39.177Z,1000.17
2016-03-30T07:28:39.149Z,1000.16
2016-03-30T07:29:39.120Z,1000.22
2016-03-30T07:30:39.107Z,1000.21
2016-03-30T07:31:39.079Z,1000.19
2016-03-30T07:32:39.050Z,1000.23
2016-03-30T07:33:39.037Z,1000.28
2016-03-30T07:34:39.008Z,1000.25
2016-03-30T07:35:38.980Z,1000.28
2016-03-30T07:36:38.967Z,1000.3
2016-03-30T07:37:38.939Z,1000.28
2016-03-30T07:38:38.911Z,1000.2
2016-03-30T07:39:38.897Z,1000.29
2016-03-30T07:40:38.869Z,1000.28
2016-03-30T07:41:38.855Z,1000.28
2016-03-30T07:42:38.827Z,1000.34
2016-03-30T07:43:38.799Z,1000.33
2016-03-30T07:44:38.786Z,1000.35
2016-03-30T07:45:38.758Z,1000.27
2016-03-30T07:46:38.728Z,1000.31
2016-03-30T07:47:38.700Z,1000.3
2016-03-30T07:48:38.687Z,1000.37
2016-03-30T07:49:38.658Z,1000.3
2016-03-30T07:50:38.630Z,1000.37
2016-03-30T07:51:38.617Z,1000.39
2016-03-30T07:52:38.588Z,1000.42
2016-03-30T07:53:38.575Z,1000.39
2016-03-30T07:54:38.546Z,1000.41
2016-03-30T07:55:38.518Z,1000.38
2016-03-30T07:56:38.505Z,1000.5
2016-03-30T07:57:38.476Z,1000.48
2016-03-30T07:58:38.448Z,1000.45
2016-03-30T07:59:38.435Z,1000.45
2016-03-30T08:00:38.470Z,1000.49
2016-03-30T08:01:38.378Z,1000.51
2016-03-30T08:02:38.365Z,1000.53
2016-03-30T08:03:38.337Z,1000.51
2016-03-30T08:04:38.401Z,1000.54
2016-03-30T08:05:38.289Z,1000.55
2016-03-30T08:06:38.264Z,1000.54
2016-03-30T08:07:38.226Z,1000.59
2016-03-30T08:08:38.373Z,1000.57
2016-03-30T08:09:38.209Z,1000.6
2016-03-30T08:10:38.150Z,1000.55
2016-03-30T08:11:38.137Z,1000.55
2016-03-30T08:12:38.109Z,1000.53
2016-03-30T08:13:38.096Z,1000.47
2016-03-30T08:14:38.067Z,1000.54
2016-03-30T08:15:38.054Z,1000.5
2016-03-30T08:16:38.025Z,1000.54
2016-03-30T08:17:37.998Z,1000.51
2016-03-30T08:18:37.984Z,1000.48
2016-03-30T08:19:37.956Z,1000.52
2016-03-30T08:20:37.927Z,1000.48
2016-03-30T08:21:37.914Z,1000.53
2016-03-30T08:22:37.886Z,1000.52
2016-03-30T08:23:37.857Z,1000.57
2016-03-30T08:24:37.845Z,1000.55
2016-03-30T08:25:37.816Z,1000.53
2016-03-30T08:26:37.788Z,1000.55
2016-03-30T08:27:37.774Z,1000.6
2016-03-30T08:28:37.746Z,1000.62
2016-03-30T08:29:37.733Z,1000.6
2016-03-30T08:30:37.705Z,1000.6
2016-03-30T08:31:37.692Z,1000.65
2016-03-30T08:32:37.648Z,1000.62
2016-03-30T08:33:37.635Z,1000.6
2016-03-30T08:34:37.606Z,1000.62
2016-03-30T08:35:37.584Z,1000.63
2016-03-30T08:36:37.570Z,1000.69
2016-03-30T08:37:37.542Z,1000.7
2016-03-30T08:38:37.514Z,1000.74
2016-03-30T08:39:37.500Z,1000.73
2016-03-30T08:40:37.472Z,1000.8
2016-03-30T08:41:37.443Z,1000.77
2016-03-30T08:42:37.430Z,1000.8
2016-03-30T08:43:37.402Z,1000.74
2016-03-30T08:44:37.396Z,1000.77
2016-03-30T08:45:37.398Z,1000.78
2016-03-30T08:46:37.339Z,1000.78
2016-03-30T08:47:37.310Z,1000.76
2016-03-30T08:48:37.282Z,1000.72
2016-03-30T08:49:37.269Z,1000.77
2016-03-30T08:50:37.240Z,1000.8
2016-03-30T08:51:37.228Z,1000.79
2016-03-30T08:52:37.199Z,1000.78
2016-03-30T08:53:37.170Z,1000.79
2016-03-30T08:54:37.158Z,1000.78
2016-03-30T08:55:37.129Z,1000.82
2016-03-30T08:56:37.101Z,1000.86
2016-03-30T08:57:37.087Z,1000.86
2016-03-30T08:58:37.058Z,1000.84
2016-03-30T08:59:37.031Z,1000.82
2016-03-30T09:00:37.017Z,1000.85
2016-03-30T09:01:36.989Z,1000.85
2016-03-30T09:02:36.975Z,1000.85
2016-03-30T09:03:36.947Z,1000.86
2016-03-30T09:04:36.919Z,1000.87
2016-03-30T09:05:36.906Z,1000.84
2016-03-30T09:06:36.877Z,1000.86
2016-03-30T09:07:36.864Z,1000.83
2016-03-30T09:08:36.835Z,1000.92
2016-03-30T09:09:36.808Z,1000.81
2016-03-30T09:10:36.779Z,1000.87
2016-03-30T09:11:36.766Z,1000.84
2016-03-30T09:12:36.753Z,1000.87
2016-03-30T09:13:36.725Z,1000.91
2016-03-30T09:14:36.696Z,1000.91
2016-03-30T09:15:36.699Z,1000.92
2016-03-30T09:16:36.655Z,1000.91
2016-03-30T09:17:36.626Z,1000.99
2016-03-30T09:18:36.598Z,1001.02
2016-03-30T09:19:36.584Z,1001.05
2016-03-30T09:20:36.572Z,1001.04
2016-03-30T09:21:36.543Z,1001.05
2016-03-30T09:22:36.515Z,1000.99
2016-03-30T09:23:36.486Z,1001.03
2016-03-30T09:24:36.472Z,1001.03
2016-03-30T09:25:36.444Z,1001.01
2016-03-30T09:26:36.432Z,1001.07
2016-03-30T09:27:36.403Z,1001.03
2016-03-30T09:28:36.389Z,1001.06
2016-03-30T09:29:36.361Z,1001.07
2016-03-30T09:30:36.364Z,1001.02
2016-03-30T09:31:36.320Z,1001.05
2016-03-30T09:32:36.291Z,1001.02
2016-03-30T09:33:36.278Z,1000.98
2016-03-30T09:34:36.250Z,1001.03
2016-03-30T09:35:36.237Z,1001
2016-03-30T09:36:36.208Z,1001.11
2016-03-30T09:37:36.180Z,1001.06
2016-03-30T09:38:36.166Z,1001.1
2016-03-30T09:39:36.138Z,1001.16
2016-03-30T09:40:36.125Z,1001.12
2016-03-30T09:41:36.097Z,1001.12
2016-03-30T09:42:36.083Z,1001.18
2016-03-30T09:43:36.055Z,1001.12
2016-03-30T09:44:36.027Z,1001.12
2016-03-30T09:45:36.076Z,1001.15
2016-03-30T09:46:35.985Z,1001.17
2016-03-30T09:47:35.972Z,1001.22
2016-03-30T09:48:35.943Z,1001.22
2016-03-30T09:49:35.915Z,1001.23
2016-03-30T09:50:35.884Z,1001.21
2016-03-30T09:51:35.871Z,1001.22
2016-03-30T09:52:35.858Z,1001.21
2016-03-30T09:53:35.845Z,1001.21
2016-03-30T09:54:35.801Z,1001.29
2016-03-30T09:55:35.788Z,1001.28
2016-03-30T09:56:35.759Z,1001.3
2016-03-30T09:57:35.746Z,1001.25
2016-03-30T09:58:35.718Z,1001.24
2016-03-30T09:59:35.705Z,1001.32
2016-03-30T10:00:35.676Z,1001.29
2016-03-30T10:01:35.663Z,1001.29
2016-03-30T10:02:35.635Z,1001.26
2016-03-30T10:03:35.622Z,1001.26
2016-03-30T10:04:35.640Z,1001.35
2016-03-30T10:05:35.564Z,1001.29
2016-03-30T10:06:35.552Z,1001.28
2016-03-30T10:07:35.523Z,1001.3
2016-03-30T10:08:35.511Z,1001.28
2016-03-30T10:09:35.483Z,1001.33
2016-03-30T10:10:35.469Z,1001.33
2016-03-30T10:11:35.440Z,1001.38
2016-03-30T10:12:35.411Z,1001.4
2016-03-30T10:13:35.396Z,1001.36
2016-03-30T10:14:35.358Z,1001.38
2016-03-30T10:15:35.334Z,1001.38
